UKBBUKDD

Guest
Details From UKBB - Boryspil
To UKDD - Dnipropetrovsk Intl
Flight Number -
Tags Generated
Created
Modified
Stats Distance 203 nm / 376 km
Max Altitude 0 ft / 0 m
Waypoints 2
Social Downloads 4
Likes 0
Share VATSIM

Download

Looking for another format? Having issues loading an existing format? Contact us
Advertisement - Login to hide

Notes

Generated

Route

UKBB UKDD

ID Type Via Altitude Latitude Longitude Leg Dist Tot Dist Heading (true) Name
O UKBB APT - 0 ft / 0 m 50.36056˚ 30.90660˚ - 0 nm - -
O UKDD APT - 0 ft / 0 m 48.35722˚ 35.08126˚ 202 nm 202 nm 125° / 128° -

Altitude Profile

Advertisement - Login to hide

Weather


0- 5 10 15 20 25 30 35+ Temperature / ° C

Clouds and Precipitation
Forecast for 2018-05-27 12:00 UTC. Updated 3 hours ago

Ground ~20,000 ft ~40,000 ft Winds

UKBB

Details ICAO UKBB (KBP)
Name Boryspil
Region Ukraine
Timezone Europe/Kiev (UTC+3.0)
Stats Elevation 421 ft / 128 m (AMSL)
Location 50.339472° 30.892903°
Runways 2
Magnetic Variation 7.721° E

METAR

UKBB 271400Z 08004MPS 040V130 CAVOK 23/01 Q1025 R36R/CLRD// NOSIG

Decode

TAF

TAF UKBB 271101Z 2712/2812 09005G10MPS CAVOK BECMG 2718/2720 05003MPS BECMG 2807/2809 07005G10MPS

Decode

Departure Runways

ID Width Length Bearing (true) Bearing (mag) Surface Threshold Offset Overrun Length
18L 197 ft / 60 m 13,152 ft / 4,009 m 182.72° 175.00° Concrete 0 ft / 0 m 295 ft / 90 m
18R 207 ft / 63 m 11,470 ft / 3,496 m 182.62° 174.90° Concrete 0 ft / 0 m 164 ft / 50 m
36L 207 ft / 63 m 11,470 ft / 3,496 m 2.62° 354.90° Concrete 0 ft / 0 m 164 ft / 50 m
36R 197 ft / 60 m 13,152 ft / 4,009 m 2.72° 355.00° Concrete 0 ft / 0 m 295 ft / 90 m

UKDD

Details ICAO UKDD (DNK)
Name Dnipropetrovsk Intl
Region Ukraine
Timezone Europe/Kiev (UTC+3.0)
Stats Elevation 481 ft / 147 m (AMSL)
Location 48.357222° 35.100556°
Runways 1
Magnetic Variation 7.891° E

METAR

UKDD 271400Z 07008MPS CAVOK 24/05 Q1022 R08/090070 NOSIG

Decode

TAF

TAF UKDD 271102Z 2712/2812 08007MPS CAVOK TEMPO 2712/2717 09008G13MPS BECMG 2717/2719 04006MPS

Decode

Destination Runways

ID Width Length Bearing (true) Bearing (mag) Surface Threshold Offset Overrun Length
09 144 ft / 44 m 9,359 ft / 2,853 m 89.99° 82.10° Concrete 0 ft / 0 m 0 ft / 0 m
27 144 ft / 44 m 9,359 ft / 2,853 m 270.01° 262.12° Concrete 0 ft / 0 m 0 ft / 0 m

Approach Navaids

Runway Type Ident Frequency Range Bearing (true) Bearing (mag) Slope Elevation
09 Localiser IDP 109.50 MHz 18 nm / 33 km 80.68° 72.79° - 481 ft / 147 m (AMSL)
09 Glidescope IDP 109.50 MHz 10 nm / 19 km 90.00° 82.11° 2.50° 481 ft / 147 m (AMSL)
27 Localiser IDR 110.30 MHz 18 nm / 33 km 269.98° 262.09° - 481 ft / 147 m (AMSL)
27 Glidescope IDR 110.30 MHz 10 nm / 19 km 270.00° 262.11° 3.00° 481 ft / 147 m (AMSL)

Popular Alternatives